Goulds, Florida
Current Conditions -  °F | °C
As of 3:53 AM on Wednesday 28 Jan 2015 (Local Time) from KTMB Reporting Station
Broken Clouds Broken Clouds  
Wind Chill: 59°   Ceiling: 4800
Heat Index: 59°   Visibility: 10mi
Dew Point: 54°   Wind: 9mph
Humidity: 83%   Direction: 340°NNW
Pressure: 30.06"   Gusts: NA
Location:  25.5586°N, 80.4556°W
Report Text: KTMB 280853Z AUTO 34008KT 10SM SCT038 BKN048 15/12 A3006 RMK AO2 SLP178 T01500122 55001
Loading
Personal Weather Stations






























Interactive Weather Map New forecast layout! Learn more

10-Day Weather Forecast

Advertisements
Track Severe Weather on mobile